AirNav   ProFlight Series 2 Aviation Headset
 
 940 users online  

LA65 Acadian Medical Center Heliport
Eunice, Louisiana, USA

GOING TO EUNICE?


FAA INFORMATION EFFECTIVE 08 OCTOBER 2020

Location

FAA Identifier: LA65
Lat/Long: 30-29-48.0000N 092-23-14.0000W
30-29.800000N 092-23.233333W
30.4966667,-92.3872222
(estimated)
Elevation: 56 ft. / 17 m (estimated)
From city: 1 mile ENE of EUNICE, LA
Time zone: UTC -5 (UTC -6 during Standard Time)
Zip code: 70535

Heliport Operations

Heliport use: Private use, MEDICAL USE.
Activation date: 02/2006
Control tower: no
ARTCC: HOUSTON CENTER
FSS: DE RIDDER FLIGHT SERVICE STATION
Attendance: CONTINUOUS
Wind indicator: lighted
Segmented circle: no
Lights: SS-SR

Heliport Communications

WX AWOS-3PT at OPL (15 nm E): 118.775 (337-948-8560)

Nearby radio navigation aids

VOR radial/distance  VOR name  Freq  Var
LFTr309/27.3LAFAYETTE VORTAC109.8003E

 
NDB name  Hdg/Dist  Freq  Var  ID
DURALDE138/4.926302EECY . -.-. -.--
ABBEVILLE330/29.523002EBNZ -... -. --..

Heliport Services

Runway Information

Helipad H1

Dimensions: 40 x 40 ft. / 12 x 12 m
Surface: concrete
Runway edge lights: PERI
Traffic pattern: leftleft

Heliport Ownership and Management from official FAA records

Ownership: Privately-owned
Owner: ACADIAN MED CNTR
3501 HWY 190 EAST
EUNICE, LA 70535
Phone 337-580-7500
Manager: TONY JOHNSON
3501 HWY 190 EAST
EUNICE, LA 70530
Phone 337-580-7500

Additional Remarks

FOR CD CTC LAFAYETTE APCH AT 337-262-2729, WHEN APCH CLSD CTC HOUSTON ARTCC AT 281-230-5622.

Instrument Procedures

There are no published instrument procedures at LA65.

Some nearby airports with instrument procedures:

4R7 - Eunice Airport (3 nm SW)
KOPL - St Landry Parish Airport-Ahart Field (15 nm E)
3R7 - Jennings Airport (21 nm SW)
KACP - Allen Parish Airport (22 nm NW)
KLFT - Lafayette Regional Airport/Paul Fournet Field (27 nm SE)
 
Loc | Ops | Rwys | IFR | FBO | Links
Com | Nav | Svcs | Stats | Notes
Aerial photo
No photo
 
Sectional chart

 
Airport distance calculator
Flying to Acadian Medical Center Heliport? Find the distance to fly.

From to LA65

Sunrise and sunset
Times for 30-Oct-2020
 Local
(UTC-5)
 Zulu
(UTC)
Morning civil twilight07:0012:00
Sunrise07:2412:24
Sunset18:2223:22
Evening civil twilight18:4723:47

Current date and time
Zulu (UTC)  31-Oct-2020 01:29:04
Local (UTC-5)  30-Oct-2020 20:29:04
 
METAR
KOPL 
15nm E 
310115Z AUTO 35003KT 10SM CLR 11/07 A3022 RMK AO2 T01130066
K3R7 
21nm SW 
310115Z AUTO 03003KT 10SM CLR 13/07 A3021 RMK AO2 T01300067
KACP 
22nm NW 
310115Z AUTO 00000KT 10SM CLR 08/07 A3021 RMK AO2
KLFT 
27nm SE 
310053Z AUTO 36006KT 10SM CLR 13/06 A3020 RMK AO2 SLP225 T01330061
TAF
KLFT 
27nm SE 
301725Z 3018/3118 05007KT P6SM SKC FM310000 01003KT P6SM SKC FM311500 05003KT P6SM SKC
NOTAMs
Click for the latest NOTAMs
NOTAMs are issued by the DoD/FAA and will open in a separate window not controlled by AirNav.

 

 
 

Would you like to see your business listed on this page?

 If your business provides an interesting product or service to pilots, flight crews, aircraft, or users of the Acadian Medical Center Heliport, you should consider listing it here.  To start the listing process, click on the button below
 
Add a business
 

Other Pages about Acadian Medical Center Heliport

Update a link
 
Copyright © AirNav, LLC. All rights reserved. Privacy Policy  Contact